createdAt,value
2022-09-23T00:01:07.674Z,99865.53
2022-09-23T00:03:37.218Z,99867.56
2022-09-23T00:06:10.757Z,99869.84
2022-09-23T00:08:38.274Z,99864.97
2022-09-23T00:11:07.065Z,99876.00
2022-09-23T00:13:34.570Z,99868.66
2022-09-23T00:16:10.327Z,99861.31
2022-09-23T00:18:36.993Z,99859.50
2022-09-23T00:21:05.415Z,99865.63
2022-09-23T00:23:32.721Z,99861.31
2022-09-23T00:26:00.846Z,99864.91
2022-09-23T00:28:27.451Z,99860.41
2022-09-23T00:30:54.381Z,99860.41
2022-09-23T00:33:20.967Z,99856.72
2022-09-23T00:35:47.777Z,99849.50
2022-09-23T00:38:14.429Z,99848.13
2022-09-23T00:40:46.099Z,99843.16
2022-09-23T00:43:14.252Z,99849.78
2022-09-23T00:45:42.182Z,99837.84
2022-09-23T00:48:11.702Z,99839.31
2022-09-23T00:50:40.111Z,99829.50
2022-09-23T00:53:09.446Z,99830.97
2022-09-23T00:55:49.407Z,99828.50
2022-09-23T00:58:19.014Z,99836.47
2022-09-23T01:00:46.814Z,99839.69
2022-09-23T01:03:14.292Z,99838.13
2022-09-23T01:05:41.743Z,99845.44
2022-09-23T01:08:10.380Z,99837.16
2022-09-23T01:10:58.173Z,99834.34
2022-09-23T01:13:41.550Z,99833.41
2022-09-23T01:16:34.303Z,99823.97
2022-09-23T01:19:03.860Z,99829.81
2022-09-23T01:21:39.380Z,99834.59
2022-09-23T01:24:23.510Z,99832.94
2022-09-23T01:26:50.170Z,99835.44
2022-09-23T01:29:38.538Z,99833.59
2022-09-23T01:32:13.679Z,99831.13
2022-09-23T01:35:03.090Z,99831.13
2022-09-23T01:37:52.504Z,99828.84
2022-09-23T01:40:38.488Z,99831.66
2022-09-23T01:43:20.315Z,99820.03
2022-09-23T01:45:48.267Z,99828.16
2022-09-23T01:48:18.290Z,99826.19
2022-09-23T01:51:00.014Z,99831.13
2022-09-23T01:53:45.458Z,99830.81
2022-09-23T01:56:21.237Z,99827.53
2022-09-23T01:59:02.657Z,99825.72
2022-09-23T02:01:37.566Z,99823.84
2022-09-23T02:04:09.276Z,99829.00
2022-09-23T02:07:03.448Z,99825.72
2022-09-23T02:09:36.522Z,99827.63
2022-09-23T02:12:05.806Z,99830.13
2022-09-23T02:14:38.643Z,99820.03
2022-09-23T02:17:13.068Z,99818.00
2022-09-23T02:19:45.131Z,99816.72
2022-09-23T02:22:19.582Z,99818.38
2022-09-23T02:24:46.236Z,99809.56
2022-09-23T02:27:25.852Z,99821.41
2022-09-23T02:29:58.935Z,99817.09
2022-09-23T02:32:50.604Z,99820.56
2022-09-23T02:35:41.140Z,99818.75
2022-09-23T02:38:31.562Z,99821.03
2022-09-23T02:41:05.519Z,99819.75
2022-09-23T02:43:42.139Z,99821.41
2022-09-23T02:46:09.150Z,99816.44
2022-09-23T02:48:45.627Z,99816.72
2022-09-23T02:51:13.053Z,99814.72
2022-09-23T02:53:39.950Z,99812.59
2022-09-23T02:56:19.598Z,99810.03
2022-09-23T02:58:48.141Z,99817.28
2022-09-23T03:01:15.397Z,99803.38
2022-09-23T03:03:53.820Z,99798.06
2022-09-23T03:06:40.772Z,99804.56
2022-09-23T03:09:20.731Z,99800.25
2022-09-23T03:11:50.700Z,99805.75
2022-09-23T03:14:19.850Z,99806.03
2022-09-23T03:17:01.477Z,99810.06
2022-09-23T03:19:35.416Z,99803.47
2022-09-23T03:22:15.448Z,99802.63
2022-09-23T03:24:44.854Z,99799.16
2022-09-23T03:27:17.864Z,99798.53
2022-09-23T03:29:53.364Z,99794.13
2022-09-23T03:32:23.897Z,99787.16
2022-09-23T03:34:54.330Z,99787.91
2022-09-23T03:37:23.539Z,99793.56
2022-09-23T03:40:09.172Z,99790.09
2022-09-23T03:42:37.481Z,99793.56
2022-09-23T03:45:08.274Z,99787.25
2022-09-23T03:47:35.666Z,99782.31
2022-09-23T03:50:02.323Z,99786.13
2022-09-23T03:52:29.006Z,99784.59
2022-09-23T03:54:55.623Z,99779.28
2022-09-23T03:57:23.882Z,99777.72
2022-09-23T03:59:51.218Z,99782.13
2022-09-23T04:02:19.000Z,99782.13
2022-09-23T04:04:46.177Z,99787.91
2022-09-23T04:07:13.130Z,99780.75
2022-09-23T04:09:39.993Z,99781.94
2022-09-23T04:12:06.918Z,99779.84
2022-09-23T04:14:33.636Z,99772.25
2022-09-23T04:17:00.183Z,99779.09
2022-09-23T04:19:26.771Z,99778.06
2022-09-23T04:21:53.316Z,99786.94
2022-09-23T04:24:20.094Z,99783.47
2022-09-23T04:26:50.479Z,99781.16
2022-09-23T04:29:17.021Z,99778.88
2022-09-23T04:31:43.637Z,99783.81
2022-09-23T04:34:10.287Z,99780.69
2022-09-23T04:36:36.872Z,99790.50
2022-09-23T04:39:03.672Z,99787.66
2022-09-23T04:41:30.208Z,99782.34
2022-09-23T04:43:57.565Z,99780.34
2022-09-23T04:46:24.288Z,99780.69
2022-09-23T04:48:50.970Z,99784.81
2022-09-23T04:51:20.085Z,99784.00
2022-09-23T04:53:48.737Z,99783.53
2022-09-23T04:56:23.588Z,99782.34
2022-09-23T04:58:50.673Z,99789.97
2022-09-23T05:01:26.934Z,99788.41
2022-09-23T05:03:55.432Z,99795.19
2022-09-23T05:06:21.995Z,99789.13
2022-09-23T05:08:53.918Z,99793.19
2022-09-23T05:11:21.151Z,99783.84
2022-09-23T05:13:48.542Z,99794.09
2022-09-23T05:16:15.393Z,99786.41
2022-09-23T05:18:43.866Z,99796.97
2022-09-23T05:21:12.022Z,99800.38
2022-09-23T05:23:39.799Z,99808.41
2022-09-23T05:26:12.118Z,99808.81
2022-09-23T05:28:39.426Z,99797.69
2022-09-23T05:31:20.131Z,99810.19
2022-09-23T05:33:52.020Z,99804.00
2022-09-23T05:36:23.124Z,99813.38
2022-09-23T05:38:51.295Z,99809.59
2022-09-23T05:41:19.708Z,99811.56
2022-09-23T05:43:47.417Z,99812.09
2022-09-23T05:46:18.949Z,99811.34
2022-09-23T05:48:47.146Z,99810.47
2022-09-23T05:51:17.226Z,99823.72
2022-09-23T05:53:45.496Z,99816.25
2022-09-23T05:56:13.088Z,99814.50
2022-09-23T05:58:40.433Z,99818.28
2022-09-23T06:01:18.218Z,99811.44
2022-09-23T06:03:48.915Z,99816.03
2022-09-23T06:06:18.102Z,99815.09
2022-09-23T06:08:48.136Z,99818.47
2022-09-23T06:11:14.995Z,99817.72
2022-09-23T06:13:42.349Z,99817.34
2022-09-23T06:16:13.809Z,99822.56
2022-09-23T06:18:44.845Z,99822.38
2022-09-23T06:21:13.956Z,99827.00
2022-09-23T06:23:41.885Z,99828.47
2022-09-23T06:26:10.924Z,99826.03
2022-09-23T06:28:39.575Z,99831.63
2022-09-23T06:31:14.035Z,99831.84
2022-09-23T06:33:42.870Z,99836.19
2022-09-23T06:36:10.290Z,99834.09
2022-09-23T06:38:44.108Z,99832.50
2022-09-23T06:41:11.779Z,99838.22
2022-09-23T06:43:38.555Z,99830.00
2022-09-23T06:46:07.377Z,99836.59
2022-09-23T06:48:35.335Z,99838.84
2022-09-23T06:51:04.130Z,99837.44
2022-09-23T06:53:34.499Z,99842.34
2022-09-23T06:56:03.182Z,99836.56
2022-09-23T06:58:30.472Z,99840.06
2022-09-23T07:01:11.510Z,99848.09
2022-09-23T07:03:38.854Z,99842.06
2022-09-23T07:06:06.079Z,99852.97
2022-09-23T07:08:33.919Z,99843.44
2022-09-23T07:11:02.385Z,99849.22
2022-09-23T07:13:30.173Z,99838.50
2022-09-23T07:15:58.539Z,99845.84
2022-09-23T07:18:26.348Z,99840.72
2022-09-23T07:20:53.975Z,99843.91
2022-09-23T07:23:20.708Z,99852.75
2022-09-23T07:25:50.364Z,99845.94
2022-09-23T07:28:17.727Z,99854.94
2022-09-23T07:30:54.676Z,99856.72
2022-09-23T07:33:32.289Z,99855.53
2022-09-23T07:35:59.628Z,99843.59
2022-09-23T07:38:30.114Z,99853.13
2022-09-23T07:41:05.771Z,99850.75
2022-09-23T07:43:32.954Z,99847.00
2022-09-23T07:46:03.319Z,99847.69
2022-09-23T07:48:34.129Z,99849.88
2022-09-23T07:51:26.306Z,99851.78
2022-09-23T07:53:53.987Z,99847.72
2022-09-23T07:56:22.598Z,99843.25
2022-09-23T07:59:00.144Z,99852.81
2022-09-23T08:01:29.461Z,99848.09
2022-09-23T08:04:08.169Z,99854.38
2022-09-23T08:06:34.828Z,99851.81
2022-09-23T08:09:01.722Z,99849.75
2022-09-23T08:11:28.475Z,99856.72
2022-09-23T08:13:55.872Z,99850.03
2022-09-23T08:16:22.569Z,99851.38
2022-09-23T08:18:49.368Z,99851.28
2022-09-23T08:21:22.611Z,99844.91
2022-09-23T08:23:49.372Z,99838.28
2022-09-23T08:26:20.594Z,99839.44
2022-09-23T08:28:48.588Z,99838.81
2022-09-23T08:31:15.312Z,99832.28
2022-09-23T08:33:41.995Z,99833.53
2022-09-23T08:36:08.626Z,99824.97
2022-09-23T08:38:35.237Z,99820.47
2022-09-23T08:41:16.245Z,99823.41
2022-09-23T08:43:49.104Z,99823.97
2022-09-23T08:46:22.357Z,99817.00
2022-09-23T08:48:49.455Z,99817.66
2022-09-23T08:51:24.259Z,99820.94
2022-09-23T08:53:51.027Z,99809.03
2022-09-23T08:56:20.409Z,99805.13
2022-09-23T08:58:54.547Z,99818.25
2022-09-23T09:01:52.378Z,99816.03
2022-09-23T09:04:52.482Z,99812.97
2022-09-23T09:07:36.118Z,99803.00
2022-09-23T09:10:19.661Z,99808.84
2022-09-23T09:12:51.119Z,99801.81
2022-09-23T09:15:27.294Z,99804.06
2022-09-23T09:17:59.329Z,99804.13
2022-09-23T09:20:57.245Z,99799.38
2022-09-23T09:23:31.808Z,99795.78
2022-09-23T09:26:00.664Z,99789.50
2022-09-23T09:28:38.097Z,99787.59
2022-09-23T09:31:38.574Z,99787.53
2022-09-23T09:34:11.391Z,99786.31
2022-09-23T09:36:54.006Z,99783.00
2022-09-23T09:39:25.432Z,99765.97
2022-09-23T09:41:53.752Z,99759.34
2022-09-23T09:44:31.638Z,99753.69
2022-09-23T09:47:15.846Z,99747.88
2022-09-23T09:49:52.435Z,99746.13
2022-09-23T09:52:26.915Z,99748.63
2022-09-23T09:54:54.110Z,99748.00
2022-09-23T09:57:33.677Z,99740.22
2022-09-23T10:00:26.297Z,99740.09
2022-09-23T10:03:05.069Z,99733.00
2022-09-23T10:05:43.635Z,99736.19
2022-09-23T10:08:24.847Z,99734.97
2022-09-23T10:10:54.689Z,99743.72
2022-09-23T10:13:24.300Z,99732.91
2022-09-23T10:15:54.734Z,99729.97
2022-09-23T10:18:32.532Z,99734.63
2022-09-23T10:21:12.090Z,99723.69
2022-09-23T10:23:41.902Z,99738.50
2022-09-23T10:26:10.185Z,99731.94
2022-09-23T10:28:59.431Z,99738.59
2022-09-23T10:31:28.287Z,99727.75
2022-09-23T10:34:00.404Z,99730.59
2022-09-23T10:36:29.400Z,99723.75
2022-09-23T10:39:20.239Z,99722.78
2022-09-23T10:42:30.895Z,99721.50
2022-09-23T10:45:39.759Z,99719.38
2022-09-23T10:48:36.024Z,99718.19
2022-09-23T10:51:26.557Z,99712.47
2022-09-23T10:53:59.080Z,99712.28
2022-09-23T10:56:39.835Z,99709.88
2022-09-23T10:59:30.233Z,99710.97
2022-09-23T11:02:28.289Z,99699.34
2022-09-23T11:05:11.454Z,99697.50
2022-09-23T11:07:47.021Z,99702.13
2022-09-23T11:10:45.972Z,99695.13
2022-09-23T11:13:40.726Z,99684.97
2022-09-23T11:16:20.203Z,99682.81
2022-09-23T11:19:19.091Z,99682.31
2022-09-23T11:21:58.293Z,99678.00
2022-09-23T11:25:00.254Z,99674.19
2022-09-23T11:27:57.940Z,99672.28
2022-09-23T11:30:50.025Z,99663.06
2022-09-23T11:33:46.947Z,99666.25
2022-09-23T11:36:29.793Z,99647.25
2022-09-23T11:38:59.527Z,99644.97
2022-09-23T11:41:29.052Z,99644.06
2022-09-23T11:44:36.374Z,99646.25
2022-09-23T11:47:14.479Z,99638.59
2022-09-23T11:50:00.453Z,99638.31
2022-09-23T11:52:33.078Z,99637.72
2022-09-23T11:55:23.043Z,99624.97
2022-09-23T11:57:53.649Z,99614.69
2022-09-23T12:00:23.197Z,99612.97
2022-09-23T12:03:11.598Z,99613.19
2022-09-23T12:05:47.377Z,99614.78
2022-09-23T12:08:29.401Z,99612.59
2022-09-23T12:11:20.746Z,99611.78
2022-09-23T12:14:15.279Z,99606.56
2022-09-23T12:17:21.215Z,99592.34
2022-09-23T12:20:02.864Z,99583.81
2022-09-23T12:22:39.845Z,99581.69
2022-09-23T12:25:24.577Z,99583.72
2022-09-23T12:27:53.074Z,99572.78
2022-09-23T12:30:22.219Z,99578.09
2022-09-23T12:32:49.163Z,99583.19
2022-09-23T12:35:35.684Z,99577.38
2022-09-23T12:38:02.330Z,99578.19
2022-09-23T12:40:34.239Z,99578.38
2022-09-23T12:43:02.332Z,99574.72
2022-09-23T12:45:32.754Z,99575.13
2022-09-23T12:48:00.966Z,99573.94
2022-09-23T12:50:50.804Z,99571.09
2022-09-23T12:53:35.699Z,99560.47
2022-09-23T12:56:34.458Z,99557.97
2022-09-23T12:59:20.983Z,99556.03
2022-09-23T13:01:47.785Z,99553.41
2022-09-23T13:04:51.421Z,99540.41
2022-09-23T13:07:23.767Z,99542.00
2022-09-23T13:09:52.694Z,99536.41
2022-09-23T13:12:29.662Z,99538.22
2022-09-23T13:15:00.700Z,99532.41
2022-09-23T13:17:38.255Z,99530.34
2022-09-23T13:20:36.566Z,99524.38
2022-09-23T13:23:20.085Z,99530.53
2022-09-23T13:25:46.744Z,99524.19
2022-09-23T13:28:50.792Z,99514.53
2022-09-23T13:31:19.650Z,99507.13
2022-09-23T13:33:50.679Z,99508.28
2022-09-23T13:36:19.186Z,99510.59
2022-09-23T13:38:47.004Z,99498.97
2022-09-23T13:41:23.079Z,99502.72
2022-09-23T13:43:56.708Z,99496.94
2022-09-23T13:46:25.554Z,99489.69
2022-09-23T13:48:56.421Z,99488.59
2022-09-23T13:51:24.764Z,99491.41
2022-09-23T13:53:55.273Z,99491.53
2022-09-23T13:56:22.718Z,99487.16
2022-09-23T13:58:49.270Z,99492.47
2022-09-23T14:01:24.052Z,99483.66
2022-09-23T14:03:51.362Z,99476.94
2022-09-23T14:06:18.015Z,99479.94
2022-09-23T14:08:47.408Z,99474.22
2022-09-23T14:11:15.865Z,99473.69
2022-09-23T14:13:43.406Z,99476.81
2022-09-23T14:16:11.656Z,99483.72
2022-09-23T14:18:41.128Z,99482.22
2022-09-23T14:21:25.992Z,99475.53
2022-09-23T14:23:52.605Z,99469.59
2022-09-23T14:26:19.458Z,99464.56
2022-09-23T14:28:47.179Z,99471.78
2022-09-23T14:31:13.971Z,99465.34
2022-09-23T14:33:42.209Z,99452.97
2022-09-23T14:36:33.147Z,99453.22
2022-09-23T14:39:11.010Z,99456.03
2022-09-23T14:41:40.025Z,99453.09
2022-09-23T14:44:07.623Z,99443.78
2022-09-23T14:46:36.269Z,99441.81
2022-09-23T14:49:06.592Z,99429.03
2022-09-23T14:51:53.127Z,99440.22
2022-09-23T14:54:39.226Z,99437.75
2022-09-23T14:57:24.166Z,99439.72
2022-09-23T15:00:18.162Z,99425.53
2022-09-23T15:03:12.656Z,99428.88
2022-09-23T15:05:41.926Z,99426.19
2022-09-23T15:08:11.151Z,99428.19
2022-09-23T15:10:38.370Z,99419.78
2022-09-23T15:13:23.641Z,99420.41
2022-09-23T15:15:54.360Z,99423.38
2022-09-23T15:18:25.839Z,99419.16
2022-09-23T15:20:54.270Z,99413.00
2022-09-23T15:23:49.839Z,99412.47
2022-09-23T15:26:19.334Z,99403.22
2022-09-23T15:28:46.818Z,99406.03
2022-09-23T15:31:18.560Z,99410.19
2022-09-23T15:33:49.341Z,99409.97
2022-09-23T15:36:21.170Z,99404.00
2022-09-23T15:38:47.964Z,99411.31
2022-09-23T15:41:15.327Z,99409.22
2022-09-23T15:43:42.320Z,99402.81
2022-09-23T15:46:14.385Z,99403.41
2022-09-23T15:48:43.774Z,99396.94
2022-09-23T15:51:14.401Z,99393.50
2022-09-23T15:53:41.079Z,99386.19
2022-09-23T15:56:07.672Z,99403.25
2022-09-23T15:58:34.358Z,99402.41
2022-09-23T16:01:01.132Z,99398.84
2022-09-23T16:03:30.582Z,99394.22
2022-09-23T16:06:00.980Z,99402.00
2022-09-23T16:08:28.466Z,99401.97
2022-09-23T16:10:55.732Z,99401.59
2022-09-23T16:13:22.999Z,99392.84
2022-09-23T16:15:49.647Z,99397.91
2022-09-23T16:18:16.295Z,99394.34
2022-09-23T16:20:44.611Z,99396.41
2022-09-23T16:23:39.767Z,99386.28
2022-09-23T16:26:24.469Z,99394.00
2022-09-23T16:28:54.066Z,99388.75
2022-09-23T16:31:22.083Z,99401.84
2022-09-23T16:33:49.067Z,99395.00
2022-09-23T16:36:22.463Z,99396.19
2022-09-23T16:38:49.206Z,99387.19
2022-09-23T16:41:15.799Z,99392.47
2022-09-23T16:43:42.364Z,99393.94
2022-09-23T16:46:12.208Z,99399.66
2022-09-23T16:48:40.535Z,99398.63
2022-09-23T16:51:20.368Z,99395.13
2022-09-23T16:53:49.289Z,99397.03
2022-09-23T16:56:16.960Z,99389.81
2022-09-23T16:58:44.014Z,99396.59
2022-09-23T17:01:34.495Z,99397.16
2022-09-23T17:04:01.480Z,99391.19
2022-09-23T17:06:28.980Z,99394.34
2022-09-23T17:08:55.636Z,99389.00
2022-09-23T17:11:22.419Z,99397.72
2022-09-23T17:13:49.869Z,99404.66
2022-09-23T17:16:27.859Z,99406.00
2022-09-23T17:18:57.705Z,99409.78
2022-09-23T17:21:26.800Z,99397.16
2022-09-23T17:23:54.558Z,99405.59
2022-09-23T17:26:23.293Z,99400.72
2022-09-23T17:28:56.948Z,99402.03
2022-09-23T17:31:24.708Z,99399.81
2022-09-23T17:33:52.671Z,99406.94
2022-09-23T17:36:20.593Z,99407.63
2022-09-23T17:38:48.221Z,99405.13
2022-09-23T17:41:15.533Z,99404.31
2022-09-23T17:43:42.213Z,99405.09
2022-09-23T17:46:12.914Z,99410.53
2022-09-23T17:48:44.198Z,99398.50
2022-09-23T17:51:15.773Z,99409.56
2022-09-23T17:53:44.996Z,99408.41
2022-09-23T17:56:25.370Z,99403.38
2022-09-23T17:58:53.483Z,99413.00
2022-09-23T18:01:25.621Z,99416.34
2022-09-23T18:03:55.892Z,99415.38
2022-09-23T18:06:24.654Z,99411.16
2022-09-23T18:08:51.441Z,99409.69
2022-09-23T18:11:27.008Z,99413.03
2022-09-23T18:14:22.751Z,99416.97
2022-09-23T18:16:51.695Z,99418.09
2022-09-23T18:19:20.085Z,99411.41
2022-09-23T18:21:52.044Z,99416.63
2022-09-23T18:24:31.882Z,99410.06
2022-09-23T18:26:59.966Z,99400.25
2022-09-23T18:29:26.864Z,99399.69
2022-09-23T18:31:53.587Z,99405.03
2022-09-23T18:34:20.386Z,99400.34
2022-09-23T18:36:47.230Z,99392.38
2022-09-23T18:39:13.770Z,99408.44
2022-09-23T18:41:41.108Z,99407.47
2022-09-23T18:44:08.192Z,99404.25
2022-09-23T18:46:35.004Z,99404.25
2022-09-23T18:49:20.185Z,99406.25
2022-09-23T18:51:48.337Z,99410.50
2022-09-23T18:54:15.366Z,99405.81
2022-09-23T18:56:43.186Z,99396.97
2022-09-23T18:59:13.984Z,99409.50
2022-09-23T19:01:40.733Z,99402.31
2022-09-23T19:04:07.457Z,99401.78
2022-09-23T19:06:37.419Z,99404.28
2022-09-23T19:09:05.481Z,99402.19
2022-09-23T19:11:32.676Z,99398.94
2022-09-23T19:14:02.645Z,99394.50
2022-09-23T19:16:31.716Z,99386.25
2022-09-23T19:18:59.826Z,99386.25
2022-09-23T19:21:27.119Z,99391.34
2022-09-23T19:23:56.451Z,99386.22
2022-09-23T19:26:28.442Z,99380.88
2022-09-23T19:28:56.556Z,99390.50
2022-09-23T19:31:25.353Z,99380.72
2022-09-23T19:34:02.690Z,99372.69
2022-09-23T19:36:31.696Z,99375.56
2022-09-23T19:39:00.817Z,99380.31
2022-09-23T19:41:28.612Z,99371.69
2022-09-23T19:43:55.459Z,99376.66
2022-09-23T19:46:22.367Z,99369.47
2022-09-23T19:48:49.041Z,99372.78
2022-09-23T19:51:17.025Z,99365.63
2022-09-23T19:53:45.470Z,99380.19
2022-09-23T19:56:15.775Z,99374.91
2022-09-23T19:58:43.802Z,99374.13
2022-09-23T20:01:10.710Z,99375.16
2022-09-23T20:03:37.341Z,99378.03
2022-09-23T20:06:04.013Z,99379.31
2022-09-23T20:08:30.607Z,99379.53
2022-09-23T20:10:57.223Z,99374.00
2022-09-23T20:13:24.030Z,99365.41
2022-09-23T20:15:50.664Z,99372.03
2022-09-23T20:18:17.339Z,99377.00
2022-09-23T20:20:43.927Z,99377.41
2022-09-23T20:23:10.449Z,99376.59
2022-09-23T20:25:55.601Z,99379.69
2022-09-23T20:28:22.364Z,99370.47
2022-09-23T20:30:48.974Z,99379.91
2022-09-23T20:33:15.639Z,99367.44
2022-09-23T20:35:43.813Z,99372.78
2022-09-23T20:38:10.540Z,99377.53
2022-09-23T20:40:38.518Z,99376.09
2022-09-23T20:43:05.355Z,99369.97
2022-09-23T20:45:32.010Z,99366.09
2022-09-23T20:48:03.271Z,99358.75
2022-09-23T20:50:30.227Z,99366.16
2022-09-23T20:52:57.606Z,99363.91
2022-09-23T20:55:24.188Z,99363.53
2022-09-23T20:57:50.731Z,99364.75
2022-09-23T21:00:18.361Z,99368.88
2022-09-23T21:02:45.015Z,99356.13
2022-09-23T21:05:11.584Z,99351.44
2022-09-23T21:07:38.489Z,99361.09
2022-09-23T21:10:07.346Z,99351.88
2022-09-23T21:12:35.145Z,99358.03
2022-09-23T21:15:02.250Z,99362.75
2022-09-23T21:17:28.807Z,99360.91
2022-09-23T21:19:55.333Z,99352.53
2022-09-23T21:22:22.666Z,99362.78
2022-09-23T21:25:31.488Z,99347.22
2022-09-23T21:27:37.174Z,99349.88
2022-09-23T21:30:04.755Z,99349.88
2022-09-23T21:32:31.304Z,99348.03
2022-09-23T21:34:57.873Z,99337.81
2022-09-23T21:37:25.448Z,99336.59
2022-09-23T21:40:15.284Z,99340.50
2022-09-23T21:42:42.017Z,99342.16
2022-09-23T21:45:09.101Z,99348.91
2022-09-23T21:47:35.737Z,99338.03
2022-09-23T21:50:02.854Z,99334.53
2022-09-23T21:52:29.428Z,99342.75
2022-09-23T21:54:56.051Z,99343.59
2022-09-23T21:57:25.883Z,99344.81
2022-09-23T21:59:54.142Z,99331.50
2022-09-23T22:02:20.674Z,99339.91
2022-09-23T22:04:47.321Z,99334.81
2022-09-23T22:07:13.894Z,99332.94
2022-09-23T22:09:40.457Z,99334.38
2022-09-23T22:12:11.645Z,99334.38
2022-09-23T22:14:39.238Z,99332.94
2022-09-23T22:17:07.774Z,99327.22
2022-09-23T22:19:40.246Z,99325.38
2022-09-23T22:22:13.165Z,99322.69
2022-09-23T22:24:40.867Z,99322.69
2022-09-23T22:27:08.630Z,99331.75
2022-09-23T22:29:54.169Z,99322.91
2022-09-23T22:32:39.842Z,99326.19
2022-09-23T22:35:17.877Z,99325.19
2022-09-23T22:37:45.332Z,99327.00
2022-09-23T22:40:16.924Z,99321.28
2022-09-23T22:42:44.013Z,99326.19
2022-09-23T22:45:11.742Z,99324.78
2022-09-23T22:47:40.305Z,99324.16
2022-09-23T22:50:08.929Z,99320.84
2022-09-23T22:52:36.137Z,99322.09
2022-09-23T22:55:03.698Z,99324.75
2022-09-23T22:57:31.226Z,99311.44
2022-09-23T22:59:57.928Z,99318.19
2022-09-23T23:02:24.530Z,99320.25
2022-09-23T23:04:51.224Z,99319.03
2022-09-23T23:07:21.034Z,99315.50
2022-09-23T23:09:51.240Z,99316.34
2022-09-23T23:12:21.457Z,99319.41
2022-09-23T23:14:49.134Z,99311.63
2022-09-23T23:17:16.370Z,99306.91
2022-09-23T23:19:43.062Z,99307.69
2022-09-23T23:22:09.746Z,99313.44
2022-09-23T23:24:36.425Z,99306.88
2022-09-23T23:27:02.955Z,99303.19
2022-09-23T23:29:29.597Z,99309.34
2022-09-23T23:31:56.170Z,99303.41
2022-09-23T23:34:23.086Z,99300.50
2022-09-23T23:36:55.173Z,99297.84
2022-09-23T23:39:26.408Z,99302.38
2022-09-23T23:41:55.055Z,99293.75
2022-09-23T23:44:23.560Z,99286.16
2022-09-23T23:46:50.312Z,99285.34
2022-09-23T23:49:16.973Z,99299.03
2022-09-23T23:51:43.520Z,99299.22
2022-09-23T23:54:12.107Z,99296.97
2022-09-23T23:56:38.797Z,99302.69
2022-09-23T23:59:05.461Z,99296.53
